LFST 151730Z AUTO 00000KT CAVOK M03/M05 Q1021 NOSIG

TAF LFST 151700Z 1518/1618 VRB03KT 8000 NSC BECMG 1522/1524 18008KT 3000 -SN SCT005 BKN030 TEMPO 1600/1606 1200 SN OVC003 BECMG 1606/1608 8000 NSW BECMG 1612/1614 OVC005 BECMG 1616/1618 VRB03KT 1200 BCFG OVC002

 

Temperature in degrees Celsius: -3
Dew Point Temperature in degrees Celsius: -5

 

http://openflyers.com/case/icingChart.php?chart=2&temperature=-3&dewPoint=-5